Time;durP1;ratioP1;P1;durP2;ratioP2;P2;SDS_P1;SDS_P2;PMS_P1;PMS_P2;Temp;Humidity;BMP_temperature;BMP_pressure;BME280_temperature;BME280_humidity;BME280_pressure;Samples;Min_cycle;Max_cycle;Signal;HPM_P1;HPM_P2
2022/03/23 00:01:44;;;;;;;122.80;54.85;;;;;;;0.08;53.68;101904.05;2135940;80;21009;-81
2022/03/23 00:04:45;;;;;;;105.55;48.73;;;;;;;0.05;53.69;101902.86;2139256;82;21085;-82
2022/03/23 00:07:46;;;;;;;109.95;48.95;;;;;;;-0.01;53.75;101890.42;2141140;82;20979;-81
2022/03/23 00:10:48;;;;;;;102.42;46.98;;;;;;;-0.07;53.93;101890.64;2137330;82;21551;-80
2022/03/23 00:13:49;;;;;;;110.30;48.58;;;;;;;-0.12;54.28;101895.17;2139024;82;21014;-83
2022/03/23 00:16:51;;;;;;;109.07;52.98;;;;;;;-0.15;54.54;101894.44;2136879;82;21473;-81
2022/03/23 00:19:52;;;;;;;136.62;60.12;;;;;;;-0.20;55.17;101891.13;2138517;82;21036;-78
2022/03/23 00:22:53;;;;;;;110.45;49.60;;;;;;;-0.24;55.56;101891.70;2136955;82;21052;-82
2022/03/23 00:25:55;;;;;;;122.65;52.88;;;;;;;-0.30;55.85;101887.55;2129790;80;21002;-80
2022/03/23 00:28:56;;;;;;;115.60;51.88;;;;;;;-0.43;56.24;101888.88;2142357;81;21017;-78
2022/03/23 00:31:57;;;;;;;121.25;52.17;;;;;;;-0.60;56.21;101882.93;2135249;80;21025;-80
2022/03/23 00:34:59;;;;;;;110.42;49.85;;;;;;;-0.62;56.20;101879.55;2136040;80;20998;-79
2022/03/23 00:38:02;;;;;;;124.25;51.65;;;;;;;-0.64;56.17;101877.44;2136377;81;21155;-78
2022/03/23 00:41:04;;;;;;;103.75;46.95;;;;;;;-0.64;56.29;101872.22;2141332;82;21033;-81
2022/03/23 00:44:06;;;;;;;107.03;47.58;;;;;;;-0.69;56.09;101870.22;2135435;82;21038;-80
2022/03/23 00:47:08;;;;;;;117.08;49.48;;;;;;;-0.72;56.09;101865.11;2134192;80;21469;-78
2022/03/23 00:50:10;;;;;;;113.80;50.28;;;;;;;-0.76;56.14;101864.80;2137141;82;21042;-81
2022/03/23 00:53:11;;;;;;;114.17;47.00;;;;;;;-0.68;56.24;101864.09;2131177;80;21595;-80
2022/03/23 00:56:13;;;;;;;107.50;47.85;;;;;;;-0.62;56.30;101859.12;2137140;82;21089;-81
2022/03/23 00:59:14;;;;;;;106.05;46.40;;;;;;;-0.60;56.38;101855.55;2138479;80;21001;-81
2022/03/23 01:02:16;;;;;;;103.07;46.30;;;;;;;-0.71;56.26;101844.64;2134859;82;22219;-82
2022/03/23 01:05:18;;;;;;;104.47;47.58;;;;;;;-0.88;56.36;101846.52;2139106;82;21688;-78
2022/03/23 01:08:20;;;;;;;99.32;45.50;;;;;;;-0.94;56.51;101837.60;2141452;82;21057;-80
2022/03/23 01:11:21;;;;;;;95.32;44.83;;;;;;;-0.92;56.70;101837.11;2133241;82;21485;-81
2022/03/23 01:14:25;;;;;;;105.25;45.98;;;;;;;-0.85;56.78;101840.34;2137328;82;20999;-78
2022/03/23 01:17:26;;;;;;;98.58;46.75;;;;;;;-0.86;57.13;101838.66;2136745;82;21548;-79
2022/03/23 01:20:30;;;;;;;106.65;47.23;;;;;;;-0.86;56.73;101833.45;2133223;82;21053;-79
2022/03/23 01:23:31;;;;;;;102.80;48.08;;;;;;;-0.85;56.99;101829.47;2134444;82;21014;-79
2022/03/23 01:26:34;;;;;;;103.17;48.63;;;;;;;-0.78;57.00;101825.77;2136122;82;21049;-82
2022/03/23 01:29:36;;;;;;;100.55;50.45;;;;;;;-0.69;56.80;101827.20;2138728;82;21074;-81
2022/03/23 01:32:39;;;;;;;113.75;53.10;;;;;;;-0.61;56.79;101822.58;2135045;82;21011;-79
2022/03/23 01:35:41;;;;;;;116.70;50.80;;;;;;;-0.59;56.75;101816.86;2134518;80;21050;-81
2022/03/23 01:38:42;;;;;;;109.45;50.67;;;;;;;-0.63;56.73;101819.16;2138904;80;21108;-79
2022/03/23 01:41:44;;;;;;;111.65;50.63;;;;;;;-0.65;56.79;101824.88;2135427;81;21475;-79
2022/03/23 01:44:46;;;;;;;107.35;49.03;;;;;;;-0.69;56.81;101821.98;2140197;80;20999;-78
2022/03/23 01:47:47;;;;;;;105.65;48.15;;;;;;;-0.71;56.76;101824.62;2141092;80;20998;-81
2022/03/23 01:50:50;;;;;;;94.55;46.00;;;;;;;-0.74;56.65;101815.62;2141887;80;21463;-79
2022/03/23 01:53:51;;;;;;;106.75;46.55;;;;;;;-0.71;56.87;101814.66;2135013;82;21014;-79
2022/03/23 01:56:57;;;;;;;94.40;44.13;;;;;;;-0.73;57.09;101815.19;2138513;82;21400;-82
2022/03/23 01:59:59;;;;;;;93.07;44.45;;;;;;;-0.87;57.10;101806.96;2134215;81;20965;-79
2022/03/23 02:03:00;;;;;;;103.80;47.15;;;;;;;-0.91;57.29;101804.46;2140011;82;21518;-79
2022/03/23 02:06:01;;;;;;;96.12;44.70;;;;;;;-0.97;57.32;101800.77;2139875;82;20964;-82
2022/03/23 02:09:04;;;;;;;95.22;44.00;;;;;;;-0.96;57.44;101797.70;2140288;80;21025;-78
2022/03/23 02:12:08;;;;;;;92.70;42.88;;;;;;;-0.94;57.47;101794.14;2133683;82;21023;-79
2022/03/23 02:15:13;;;;;;;93.35;43.85;;;;;;;-0.93;57.46;101788.05;2133337;82;21010;-80
2022/03/23 02:18:14;;;;;;;110.25;49.88;;;;;;;-0.98;57.50;101788.66;2117103;82;20990;-78
2022/03/23 02:21:18;;;;;;;110.28;52.67;;;;;;;-0.98;58.30;101788.66;2136746;82;21499;-79
2022/03/23 02:24:29;;;;;;;112.85;51.02;;;;;;;-1.10;57.88;101786.44;2136036;82;21049;-78
2022/03/23 02:27:32;;;;;;;118.40;52.58;;;;;;;-1.10;57.81;101785.59;2132869;82;21470;-81
2022/03/23 02:30:33;;;;;;;117.77;52.48;;;;;;;-1.14;57.83;101784.85;2137604;82;21059;-81
2022/03/23 02:33:34;;;;;;;108.22;53.75;;;;;;;-1.11;57.83;101791.26;2137029;82;21569;-80
2022/03/23 02:36:36;;;;;;;116.45;51.75;;;;;;;-1.10;57.93;101792.11;2146583;81;21260;-80
2022/03/23 02:39:37;;;;;;;113.60;52.93;;;;;;;-1.10;57.77;101792.11;2148890;81;20999;-79
2022/03/23 02:42:39;;;;;;;123.75;54.63;;;;;;;-1.17;57.94;101800.13;2146606;81;20966;-79
2022/03/23 02:45:41;;;;;;;117.93;52.95;;;;;;;-1.23;58.13;101802.09;2147466;81;21415;-81
2022/03/23 02:48:43;;;;;;;117.60;53.38;;;;;;;-1.24;58.17;101805.58;2143067;80;21088;-79
2022/03/23 02:51:44;;;;;;;115.97;51.92;;;;;;;-1.29;58.46;101797.94;2144537;80;21035;-77
2022/03/23 03:01:52;;;;;;;101.60;48.35;;;;;;;-1.55;58.40;101809.16;2146906;81;20994;-80
2022/03/23 03:04:53;;;;;;;97.22;47.15;;;;;;;-1.57;58.67;101805.77;2147093;80;20989;-83
2022/03/23 03:11:17;;;;;;;106.90;50.28;;;;;;;-1.60;58.45;101801.52;2140895;81;21515;-83
2022/03/23 03:14:18;;;;;;;113.85;49.95;;;;;;;-1.54;58.42;101810.03;2151984;81;22541;-83
2022/03/23 03:17:19;;;;;;;106.32;52.17;;;;;;;-1.60;58.20;101810.63;2143147;81;21039;-82
2022/03/23 03:20:21;;;;;;;102.32;51.30;;;;;;;-1.63;58.46;101805.97;2142664;81;21338;-79
2022/03/23 03:23:22;;;;;;;115.05;51.13;;;;;;;-1.61;58.37;101804.99;2144632;81;20981;-81
2022/03/23 03:26:24;;;;;;;99.28;46.50;;;;;;;-1.65;58.47;101802.09;2144724;81;20989;-82
2022/03/23 03:29:25;;;;;;;111.15;50.67;;;;;;;-1.69;58.33;101804.83;2145825;81;21076;-83
2022/03/23 03:32:27;;;;;;;107.90;49.67;;;;;;;-1.72;58.56;101808.83;2146808;80;21533;-80
2022/03/23 03:35:28;;;;;;;115.28;50.90;;;;;;;-1.70;58.82;101799.23;2147184;80;21040;-83
2022/03/23 03:38:32;;;;;;;107.20;52.67;;;;;;;-1.74;59.03;101803.69;2141651;81;21018;-82
2022/03/23 03:41:35;;;;;;;108.83;51.02;;;;;;;-1.74;59.08;101805.45;2145314;80;20990;-84
2022/03/23 03:44:36;;;;;;;104.55;49.38;;;;;;;-1.73;59.05;101809.28;2139459;81;21041;-83
2022/03/23 03:47:37;;;;;;;110.85;50.75;;;;;;;-1.74;59.08;101806.75;2151071;81;21037;-85
2022/03/23 03:50:39;;;;;;;108.57;49.30;;;;;;;-1.75;58.99;101808.93;2141601;80;21041;-81
2022/03/23 03:53:40;;;;;;;107.83;49.98;;;;;;;-1.85;59.04;101801.41;2142507;81;21007;-82
2022/03/23 03:56:42;;;;;;;108.47;51.33;;;;;;;-1.86;59.26;101807.52;2147722;81;21013;-82
2022/03/23 03:59:43;;;;;;;208.32;66.30;;;;;;;-1.95;59.44;101807.77;2143914;81;21521;-82
2022/03/23 04:02:44;;;;;;;272.07;81.82;;;;;;;-1.98;59.47;101803.96;2146541;81;21054;-83
2022/03/23 04:05:46;;;;;;;192.15;64.20;;;;;;;-2.07;59.53;101800.34;2142425;81;21009;-84
2022/03/23 04:08:47;;;;;;;117.95;53.98;;;;;;;-2.10;59.23;101795.23;2142286;80;21026;-83
2022/03/23 04:11:48;;;;;;;147.37;58.38;;;;;;;-2.11;59.62;101799.58;2143807;81;21006;-83
2022/03/23 04:18:03;;;;;;;111.50;49.95;;;;;;;-2.23;60.20;101793.41;2222581;78;22996;-83
2022/03/23 04:21:05;;;;;;;117.90;51.08;;;;;;;-2.33;60.12;101791.54;2195186;79;21528;-82
2022/03/23 04:24:07;;;;;;;120.37;54.00;;;;;;;-2.35;60.21;101793.77;2198484;79;21455;-79
2022/03/23 04:27:09;;;;;;;106.35;48.33;;;;;;;-2.35;60.41;101797.67;2194373;79;21578;-79
2022/03/23 04:30:12;;;;;;;143.75;60.95;;;;;;;-2.30;60.10;101797.95;2199491;79;20987;-80
2022/03/23 04:33:14;;;;;;;201.50;81.35;;;;;;;-2.35;60.47;101789.87;2194172;79;21763;-81
2022/03/23 04:36:15;;;;;;;172.65;67.78;;;;;;;-2.35;60.76;101791.17;2202223;79;21040;-80
2022/03/23 04:39:16;;;;;;;132.80;58.23;;;;;;;-2.32;60.56;101795.83;2193545;79;21561;-79
2022/03/23 04:42:17;;;;;;;132.90;60.55;;;;;;;-2.30;60.60;101804.45;2201014;79;21020;-81
2022/03/23 04:45:19;;;;;;;142.57;65.40;;;;;;;-2.30;60.80;101805.75;2194762;79;21017;-79
2022/03/23 04:48:21;;;;;;;178.02;84.15;;;;;;;-2.38;60.99;101808.16;2191084;79;21548;-79
2022/03/23 04:51:22;;;;;;;203.37;92.12;;;;;;;-2.41;61.22;101798.70;2194921;79;21056;-79
2022/03/23 04:54:23;;;;;;;174.87;78.50;;;;;;;-2.39;61.36;101806.44;2160150;81;21466;-81
2022/03/23 04:57:28;;;;;;;132.15;60.73;;;;;;;-2.44;61.45;101800.54;2128131;82;21515;-79
2022/03/23 05:00:29;;;;;;;107.78;50.03;;;;;;;-2.50;61.47;101801.56;2129905;82;21027;-81
2022/03/23 05:03:31;;;;;;;114.75;53.10;;;;;;;-2.64;61.76;101798.03;2130075;82;21569;-82
2022/03/23 05:06:32;;;;;;;114.08;51.23;;;;;;;-2.74;61.90;101799.16;2128683;82;21091;-81
2022/03/23 05:09:33;;;;;;;112.72;51.53;;;;;;;-2.79;61.98;101803.63;2127454;82;21808;-82
2022/03/23 05:12:37;;;;;;;109.60;49.65;;;;;;;-2.83;62.13;101795.06;2127986;82;21067;-81
2022/03/23 05:15:39;;;;;;;107.70;50.98;;;;;;;-2.71;62.07;101796.03;2132158;82;21674;-81
2022/03/23 05:18:41;;;;;;;112.60;51.55;;;;;;;-2.55;62.14;101797.78;2117464;83;21045;-80
2022/03/23 05:21:43;;;;;;;112.00;52.98;;;;;;;-2.34;62.43;101797.62;2121541;83;20975;-82
2022/03/23 05:24:44;;;;;;;109.85;50.67;;;;;;;-2.00;62.38;101794.50;2116756;83;21037;-81
2022/03/23 05:27:45;;;;;;;110.20;51.63;;;;;;;-1.45;62.37;101795.42;2110065;83;20979;-81
2022/03/23 05:30:47;;;;;;;103.30;50.98;;;;;;;-0.76;61.96;101796.59;2115001;83;21018;-84
2022/03/23 05:33:48;;;;;;;104.63;50.83;;;;;;;-0.12;61.36;101793.86;2118896;83;20997;-82
2022/03/23 05:36:49;;;;;;;102.45;51.08;;;;;;;0.47;60.93;101789.86;2119964;83;21538;-83
2022/03/23 05:39:51;;;;;;;116.82;57.00;;;;;;;1.05;60.49;101791.41;2121578;83;21253;-82
2022/03/23 05:42:52;;;;;;;113.32;54.53;;;;;;;1.66;60.00;101793.98;2117440;83;21010;-82
2022/03/23 05:45:54;;;;;;;120.95;57.35;;;;;;;2.17;59.52;101791.20;2121464;83;21027;-81
2022/03/23 05:48:55;;;;;;;110.10;55.85;;;;;;;2.69;58.83;101781.30;2116698;83;21615;-80
2022/03/23 05:51:57;;;;;;;116.75;57.03;;;;;;;3.26;58.37;101787.14;2116991;83;21043;-82
2022/03/23 05:54:58;;;;;;;139.82;58.50;;;;;;;3.74;57.76;101787.28;2120573;83;21042;-83
2022/03/23 05:58:00;;;;;;;147.05;61.60;;;;;;;4.27;57.30;101780.89;2121754;83;21003;-83
2022/03/23 06:01:02;;;;;;;109.92;56.77;;;;;;;4.83;57.04;101777.28;2118959;83;21003;-83
2022/03/23 06:04:04;;;;;;;117.17;58.35;;;;;;;5.51;56.18;101783.33;2115916;83;21027;-88
2022/03/23 06:07:05;;;;;;;117.90;60.12;;;;;;;5.82;55.11;101780.97;2121417;83;21008;-85
2022/03/23 06:10:07;;;;;;;108.47;60.30;;;;;;;6.12;54.95;101778.23;2115526;83;21051;-84
2022/03/23 06:13:09;;;;;;;112.15;59.55;;;;;;;6.53;54.46;101783.94;2115533;83;21065;-85
2022/03/23 06:16:11;;;;;;;109.67;61.40;;;;;;;6.92;53.93;101788.86;2113684;83;21016;-83
2022/03/23 06:19:13;;;;;;;100.12;58.98;;;;;;;7.40;53.58;101784.72;2107195;83;21044;-85
2022/03/23 06:22:14;;;;;;;98.60;52.38;;;;;;;7.88;52.86;101794.58;2104832;83;21008;-81
2022/03/23 06:25:17;;;;;;;100.47;53.65;;;;;;;8.15;51.82;101789.63;2105524;83;20988;-83
2022/03/23 06:28:18;;;;;;;97.27;53.63;;;;;;;8.38;51.20;101784.83;2110039;83;21074;-79
2022/03/23 06:31:21;;;;;;;112.08;57.80;;;;;;;8.63;50.67;101785.23;2108049;83;21088;-81
2022/03/23 06:34:22;;;;;;;113.00;60.58;;;;;;;8.96;50.34;101787.65;2105794;83;21061;-78
2022/03/23 06:37:24;;;;;;;120.90;62.55;;;;;;;9.37;49.89;101781.83;2106125;83;21010;-80
2022/03/23 06:40:25;;;;;;;114.08;61.53;;;;;;;9.49;48.95;101785.81;2112679;83;21012;-79
2022/03/23 06:43:27;;;;;;;98.52;58.38;;;;;;;9.80;49.09;101788.27;2112134;83;21047;-79
2022/03/23 06:46:28;;;;;;;104.35;60.60;;;;;;;10.21;48.73;101784.94;2111640;83;21002;-81
2022/03/23 06:49:30;;;;;;;101.80;59.63;;;;;;;10.49;47.89;101778.75;2107780;83;21004;-80
2022/03/23 06:52:31;;;;;;;109.22;62.60;;;;;;;10.77;47.37;101783.46;2110959;83;20986;-78
2022/03/23 06:55:33;;;;;;;108.70;63.68;;;;;;;11.03;46.74;101776.45;2108792;83;21063;-80
2022/03/23 06:58:34;;;;;;;115.12;63.65;;;;;;;11.51;46.52;101776.39;2106303;83;21586;-79
2022/03/23 07:01:35;;;;;;;108.83;61.40;;;;;;;11.97;45.42;101777.25;2109558;83;21516;-79
2022/03/23 07:04:37;;;;;;;110.05;63.80;;;;;;;12.10;43.95;101776.98;2107757;83;20963;-81
2022/03/23 07:09:31;;;;;;;108.45;63.70;;;;;;;12.16;44.34;101783.58;2104200;83;21060;-83
2022/03/23 07:10:42;;;;;;;108.32;59.03;;;;;;;12.16;43.81;101780.92;2106298;83;21018;-83
2022/03/23 07:13:43;;;;;;;102.47;58.10;;;;;;;12.33;43.29;101784.24;2110753;83;21504;-83
2022/03/23 07:16:44;;;;;;;99.13;59.58;;;;;;;12.85;42.37;101782.69;2110667;83;21063;-81
2022/03/23 07:19:46;;;;;;;103.17;59.38;;;;;;;12.85;42.37;101782.69;2107018;83;21047;-82
2022/03/23 07:22:48;;;;;;;94.85;56.77;;;;;;;12.93;41.87;101758.84;2106520;83;20978;-82
2022/03/23 07:25:49;;;;;;;104.80;56.73;;;;;;;13.45;41.78;101780.13;2174678;81;21361;-81
2022/03/23 07:28:50;;;;;;;101.15;57.95;;;;;;;13.87;41.09;101774.85;2170313;81;21501;-83
2022/03/23 07:31:52;;;;;;;94.87;57.88;;;;;;;14.18;40.75;101774.05;2172670;81;21019;-81
2022/03/23 07:34:53;;;;;;;99.05;55.85;;;;;;;14.44;40.26;101776.81;2174185;81;20987;-80
2022/03/23 07:37:55;;;;;;;93.22;55.20;;;;;;;14.70;39.85;101775.61;2140275;81;21048;-82
2022/03/23 07:40:56;;;;;;;94.28;55.80;;;;;;;14.87;39.20;101779.77;2168971;81;21039;-80
2022/03/23 07:43:57;;;;;;;87.78;53.90;;;;;;;14.91;39.00;101778.45;2172502;81;21464;-81
2022/03/23 07:46:59;;;;;;;90.00;54.48;;;;;;;15.15;38.75;101775.97;2171856;81;21035;-82
2022/03/23 07:50:00;;;;;;;92.78;56.15;;;;;;;15.31;38.28;101771.20;2167913;81;20967;-82
2022/03/23 07:53:02;;;;;;;89.60;54.55;;;;;;;15.59;38.14;101766.52;2170668;81;21055;-82
2022/03/23 07:56:04;;;;;;;87.82;51.65;;;;;;;15.68;37.58;101772.78;2173255;81;21009;-82
2022/03/23 07:59:05;;;;;;;76.82;49.42;;;;;;;15.85;37.35;101766.52;2175227;81;21002;-82
2022/03/23 08:02:08;;;;;;;82.35;51.55;;;;;;;15.98;36.74;101764.72;2173034;81;21075;-83
2022/03/23 08:05:10;;;;;;;84.22;51.83;;;;;;;16.35;36.67;101759.45;2174432;81;21079;-81
2022/03/23 08:08:11;;;;;;;81.32;49.40;;;;;;;16.55;36.20;101760.81;2172112;81;21063;-81
2022/03/23 08:11:24;;;;;;;;;;;;;;;;;;;;;
2022/03/23 08:14:47;;;;;;;74.75;46.45;;;;;;;16.43;35.19;101755.45;2124129;81;21019;-84
2022/03/23 08:17:54;;;;;;;83.07;48.60;;;;;;;16.62;35.19;101746.77;2148866;80;21109;-81
2022/03/23 08:21:01;;;;;;;74.30;46.95;;;;;;;16.69;34.50;101743.23;2129616;80;21108;-83
2022/03/23 08:24:06;;;;;;;73.35;45.80;;;;;;;16.63;34.37;101746.59;2167572;80;21080;-81
2022/03/23 08:27:11;;;;;;;57.48;37.20;;;;;;;16.95;34.21;101745.79;2189429;80;21092;-82
2022/03/23 08:30:13;;;;;;;61.37;38.25;;;;;;;17.27;33.58;101745.91;2187528;80;21018;-82
2022/03/23 08:33:15;;;;;;;65.20;38.53;;;;;;;17.41;33.15;101742.52;2158509;80;21043;-82
2022/03/23 08:36:27;;;;;;;65.92;41.73;;;;;;;17.69;33.29;101741.06;2184918;80;20984;-82
2022/03/23 08:39:28;;;;;;;62.90;38.70;;;;;;;18.11;32.91;101745.77;2188246;80;21035;-82
2022/03/23 08:42:58;;;;;;;52.05;33.88;;;;;;;18.18;32.55;101737.83;2184783;80;20951;-81
2022/03/23 08:45:51;;;;;;;63.70;34.45;;;;;;;18.22;31.67;101736.47;2154959;80;21507;-81
2022/03/23 08:48:52;;;;;;;64.05;41.30;;;;;;;18.62;31.47;101738.02;2185928;80;21002;-82
2022/03/23 08:51:54;;;;;;;62.58;39.73;;;;;;;18.85;31.37;101735.84;2189827;80;21506;-81
2022/03/23 08:54:55;;;;;;;56.63;36.90;;;;;;;18.98;30.69;101734.72;2190426;80;21590;-81
2022/03/23 08:57:57;;;;;;;57.25;36.95;;;;;;;18.91;30.69;101733.77;2186512;80;21063;-81
2022/03/23 09:00:59;;;;;;;69.92;40.05;;;;;;;19.08;30.64;101723.16;2187670;80;21047;-82
2022/03/23 09:04:03;;;;;;;55.20;35.55;;;;;;;19.38;30.65;101729.41;2199777;80;21458;-82
2022/03/23 09:07:04;;;;;;;56.92;37.03;;;;;;;19.53;29.57;101715.94;2169468;80;21007;-82
2022/03/23 09:10:07;;;;;;;54.88;35.68;;;;;;;19.34;29.50;101720.53;2189399;80;21057;-83
2022/03/23 09:13:09;;;;;;;59.88;37.53;;;;;;;19.45;29.51;101724.11;2191347;80;21036;-84
2022/03/23 09:16:10;;;;;;;59.63;39.38;;;;;;;19.64;29.38;101720.02;2185820;80;21270;-83
2022/03/23 09:19:14;;;;;;;54.63;36.13;;;;;;;19.43;28.77;101716.23;2181114;80;21051;-80
2022/03/23 09:22:15;;;;;;;57.10;37.15;;;;;;;19.49;28.91;101713.31;2176593;80;21008;-82
2022/03/23 09:25:18;;;;;;;53.45;35.13;;;;;;;19.59;28.82;101703.58;2179415;80;20990;-81
2022/03/23 09:28:21;;;;;;;55.90;35.83;;;;;;;19.79;28.15;101701.99;2180267;80;21090;-83
2022/03/23 09:31:22;;;;;;;53.95;33.55;;;;;;;19.85;28.38;101690.97;2178826;80;21470;-82
2022/03/23 09:34:23;;;;;;;48.55;32.08;;;;;;;19.91;28.03;101687.55;2180237;80;20992;-83
2022/03/23 09:40:49;;;;;;;49.40;31.55;;;;;;;20.33;27.24;101676.47;2181165;80;21040;-83
2022/03/23 09:43:52;;;;;;;48.70;33.38;;;;;;;20.47;27.42;101674.21;2172788;80;21707;-83
2022/03/23 09:46:53;;;;;;;54.15;34.33;;;;;;;20.64;26.68;101677.49;2179485;80;21630;-81
2022/03/23 09:49:54;;;;;;;52.13;32.93;;;;;;;20.66;27.17;101673.23;2178569;80;21045;-83
2022/03/23 09:52:57;;;;;;;46.02;32.80;;;;;;;21.01;27.24;101670.91;2180064;80;21036;-82
2022/03/23 09:55:58;;;;;;;46.60;30.12;;;;;;;21.19;27.03;101668.19;2183498;80;20975;-84
2022/03/23 09:59:02;;;;;;;43.63;29.82;;;;;;;21.30;25.29;101666.28;2179937;80;20990;-82
2022/03/23 10:02:18;;;;;;;39.25;27.75;;;;;;;21.05;26.13;101658.66;2181510;80;21756;-82
2022/03/23 10:05:48;;;;;;;42.53;29.45;;;;;;;21.20;25.04;101655.00;2161161;80;21034;-83
2022/03/23 10:09:28;;;;;;;44.67;29.95;;;;;;;21.16;25.97;101649.70;2177882;80;20968;-83
2022/03/23 10:13:09;;;;;;;47.55;32.45;;;;;;;21.32;25.76;101645.33;2174648;80;21083;-82
2022/03/23 10:16:50;;;;;;;49.25;31.55;;;;;;;21.41;25.71;101640.09;2181883;80;21029;-83
2022/03/23 10:19:51;;;;;;;53.42;33.48;;;;;;;21.51;25.57;101637.52;2174232;80;20987;-82
2022/03/23 10:22:54;;;;;;;53.30;35.05;;;;;;;21.05;24.43;101645.17;2179713;80;20994;-84
2022/03/23 10:25:56;;;;;;;50.85;35.08;;;;;;;20.81;25.47;101632.18;2173669;80;21767;-83
2022/03/23 10:28:59;;;;;;;52.90;33.35;;;;;;;20.98;25.38;101634.05;2175542;80;21000;-83
2022/03/23 10:32:04;;;;;;;50.10;32.88;;;;;;;21.04;25.13;101631.38;2176221;80;21024;-81
2022/03/23 10:35:13;;;;;;;43.42;31.70;;;;;;;21.05;25.31;101632.20;2178916;80;21065;-82
2022/03/23 10:38:21;;;;;;;44.95;31.52;;;;;;;21.07;24.94;101619.87;2177029;80;21548;-83
2022/03/23 10:41:26;;;;;;;48.10;29.18;;;;;;;21.15;25.12;101618.36;2173886;80;20983;-82
2022/03/23 10:44:27;;;;;;;41.90;27.87;;;;;;;21.42;24.89;101617.45;2176917;80;21021;-81
2022/03/23 10:47:31;;;;;;;38.73;27.77;;;;;;;21.75;24.03;101606.44;2174050;80;21113;-81
2022/03/23 10:50:33;;;;;;;39.03;25.88;;;;;;;21.76;24.45;101607.57;2180085;80;20962;-80
2022/03/23 10:53:37;;;;;;;36.58;25.92;;;;;;;21.77;24.12;101601.16;2179797;80;21061;-82
2022/03/23 10:56:39;;;;;;;39.03;26.07;;;;;;;21.66;23.64;101595.00;2174880;80;21002;-81
2022/03/23 10:59:46;;;;;;;38.65;26.35;;;;;;;21.73;24.03;101592.30;2174293;80;21522;-82
2022/03/23 11:02:49;;;;;;;34.90;23.27;;;;;;;21.65;23.35;101591.47;2174944;80;20978;-82
2022/03/23 11:05:50;;;;;;;35.73;23.07;;;;;;;21.46;23.13;101576.88;2179629;80;20986;-83
2022/03/23 11:08:52;;;;;;;34.70;22.13;;;;;;;21.52;23.26;101572.52;2178304;80;21009;-82
2022/03/23 11:18:37;;;;;;;29.65;19.85;;;;;;;21.67;21.94;101564.23;2171552;80;21046;-81
2022/03/23 11:22:05;;;;;;;27.00;17.85;;;;;;;21.87;22.58;101555.63;2178987;80;21519;-82
2022/03/23 11:25:07;;;;;;;27.58;18.35;;;;;;;22.06;21.97;101547.75;2171775;80;21122;-81
2022/03/23 11:28:09;;;;;;;28.00;17.98;;;;;;;22.24;21.10;101539.86;2177747;80;20985;-81
2022/03/23 11:31:13;;;;;;;25.92;17.23;;;;;;;22.15;20.10;101533.81;2174266;80;21006;-80
2022/03/23 11:34:19;;;;;;;28.60;15.68;;;;;;;22.23;20.79;101530.09;2179001;80;21484;-81
2022/03/23 11:37:28;;;;;;;21.65;14.87;;;;;;;22.41;20.97;101520.50;2181550;80;20979;-82
2022/03/23 11:40:26;;;;;;;14.87;11.38;;;;;;;22.44;20.11;101510.61;2179368;80;21149;-82
2022/03/23 11:43:30;;;;;;;17.45;11.18;;;;;;;22.48;20.20;101507.81;2175451;80;21069;-82
2022/03/23 11:46:31;;;;;;;17.25;12.28;;;;;;;22.60;19.73;101500.16;2180107;80;21017;-83
2022/03/23 11:49:53;;;;;;;16.82;10.43;;;;;;;22.55;18.73;101500.49;2174974;80;20980;-83
2022/03/23 11:53:42;;;;;;;16.93;9.00;;;;;;;22.45;18.79;101495.54;2179650;80;21027;-83
2022/03/23 11:56:58;;;;;;;12.68;8.23;;;;;;;22.44;19.29;101488.48;2175799;80;21021;-82
2022/03/23 11:59:58;;;;;;;12.65;8.48;;;;;;;22.45;19.31;101479.84;2175517;80;21024;-83
2022/03/23 12:02:59;;;;;;;11.60;7.97;;;;;;;22.50;19.30;101484.92;2176013;80;20991;-82
2022/03/23 12:06:11;;;;;;;13.80;8.08;;;;;;;22.60;19.21;101481.75;2176761;80;20978;-80
2022/03/23 12:09:44;;;;;;;16.42;8.73;;;;;;;22.67;18.84;101475.81;2178664;80;20987;-82
2022/03/23 12:12:46;;;;;;;11.95;7.60;;;;;;;22.67;18.89;101473.11;2176349;80;21026;-82
2022/03/23 12:15:58;;;;;;;19.82;7.67;;;;;;;22.62;18.00;101460.74;2175321;80;21103;-82
2022/03/23 12:19:00;;;;;;;12.65;8.98;;;;;;;22.59;18.53;101458.47;2171416;80;21028;-81
2022/03/23 12:22:10;;;;;;;13.10;8.15;;;;;;;22.59;18.46;101459.82;2178702;80;21011;-83
2022/03/23 12:25:35;;;;;;;11.53;8.00;;;;;;;22.40;18.02;101450.72;2183032;80;21007;-82
2022/03/23 12:29:07;;;;;;;11.20;7.65;;;;;;;22.38;18.12;101452.30;2149442;80;21485;-83
2022/03/23 12:32:10;;;;;;;15.28;7.35;;;;;;;22.49;18.20;101450.78;2176270;80;21009;-82
2022/03/23 12:35:11;;;;;;;15.18;7.60;;;;;;;22.63;17.93;101442.63;2177251;80;20962;-81
2022/03/23 12:38:29;;;;;;;11.45;7.20;;;;;;;22.60;17.54;101439.83;2179168;80;21038;-82
2022/03/23 12:41:46;;;;;;;12.58;7.65;;;;;;;22.49;18.01;101439.14;2179520;80;22259;-81
2022/03/23 12:45:09;;;;;;;13.08;7.72;;;;;;;22.38;17.87;101430.67;2175819;80;20969;-83
2022/03/23 12:57:49;;;;;;;11.40;6.83;;;;;;;22.38;17.87;101430.67;2173335;80;21067;-82
2022/03/23 12:58:17;;;;;;;13.18;7.95;;;;;;;22.25;18.16;101421.24;2179164;80;21447;-83
2022/03/23 13:01:21;;;;;;;11.28;7.65;;;;;;;22.22;18.29;101416.27;2176221;80;20987;-84
2022/03/23 13:04:48;;;;;;;14.33;8.05;;;;;;;22.19;18.14;101412.64;2172683;80;20969;-81
2022/03/23 13:07:50;;;;;;;11.33;7.97;;;;;;;22.20;18.36;101407.53;2173796;80;21043;-81
2022/03/23 13:10:58;;;;;;;12.33;7.55;;;;;;;22.31;18.41;101402.81;2180855;80;21014;-83
2022/03/23 13:14:00;;;;;;;13.03;7.42;;;;;;;22.35;18.09;101401.33;2173086;80;21534;-81
2022/03/23 13:17:03;;;;;;;14.40;7.70;;;;;;;22.30;18.36;101393.05;2180593;80;21429;-83
2022/03/23 13:20:09;;;;;;;13.35;7.90;;;;;;;22.27;18.41;101399.38;2175128;80;21006;-82
2022/03/23 13:23:14;;;;;;;11.78;8.18;;;;;;;22.21;18.46;101386.73;2174318;80;20981;-81
2022/03/23 13:26:19;;;;;;;12.18;7.37;;;;;;;22.26;18.67;101382.87;2183031;80;21006;-81
2022/03/23 13:29:24;;;;;;;11.55;7.75;;;;;;;22.36;18.59;101380.02;2179593;80;21000;-81
2022/03/23 13:32:34;;;;;;;13.13;8.03;;;;;;;22.29;18.32;101373.80;2176636;80;21027;-83
2022/03/23 13:35:44;;;;;;;14.75;8.03;;;;;;;22.25;18.14;101367.70;2178005;80;21064;-83
2022/03/23 13:38:47;;;;;;;;;;;;;;;22.03;17.84;101355.77;2176821;80;21521;-82
2022/03/23 13:45:09;;;;;;;11.77;8.53;;;;;;;21.87;18.28;101352.17;2179843;80;21079;-82
2022/03/23 13:48:11;;;;;;;11.25;8.20;;;;;;;21.83;18.20;101340.97;2178170;80;21987;-82
2022/03/23 13:51:12;;;;;;;14.40;8.23;;;;;;;21.84;18.53;101348.02;2181710;80;20991;-84
2022/03/23 13:54:17;;;;;;;17.42;8.65;;;;;;;21.82;18.49;101342.02;2176694;80;20984;-83
2022/03/23 13:57:18;;;;;;;12.75;8.55;;;;;;;21.70;18.47;101339.64;2168053;80;20995;-81
2022/03/23 14:00:24;;;;;;;12.07;8.25;;;;;;;21.51;17.85;101335.09;2176851;80;21573;-82
2022/03/23 14:03:33;;;;;;;14.10;8.33;;;;;;;21.34;18.56;101335.48;2178344;80;21013;-83
2022/03/23 14:06:46;;;;;;;12.20;8.45;;;;;;;21.27;18.18;101331.97;2177632;80;20987;-84
2022/03/23 14:09:48;;;;;;;12.30;7.45;;;;;;;21.23;18.60;101330.71;2179961;80;21000;-83
2022/03/23 14:12:50;;;;;;;66.10;10.70;;;;;;;21.21;18.58;101334.16;2180805;80;20996;-82
2022/03/23 14:15:57;;;;;;;12.13;7.78;;;;;;;21.27;18.83;101327.40;2173231;80;21035;-84
2022/03/23 14:19:00;;;;;;;11.30;8.13;;;;;;;21.28;18.42;101320.12;2176407;80;21526;-82
2022/03/23 14:22:09;;;;;;;15.28;8.68;;;;;;;21.17;18.75;101313.48;2186995;80;21028;-82
2022/03/23 14:25:11;;;;;;;11.65;8.03;;;;;;;21.20;18.83;101308.19;2185169;80;21020;-81
2022/03/23 14:28:22;;;;;;;11.65;8.10;;;;;;;21.25;18.87;101300.30;2183126;80;21041;-81
2022/03/23 14:31:24;;;;;;;12.68;7.75;;;;;;;21.26;18.61;101296.59;2185248;80;21612;-82